Lima, Montana
Current Conditions -  °F | °C
As of 5:53 PM on Wednesday 22 Oct 2014 (Local Time) from KDLN Reporting Station
Clear Clear  
Wind Chill: 51°   Ceiling: Unl
Heat Index: 51°   Visibility: 10mi
Dew Point: 30°   Wind: 13mph
Humidity: 44%   Direction: 160°SSE
Pressure: 30.03"   Gusts: NA
Location:  44.64°N, 112.59°W
Report Text: KDLN 222353Z AUTO 16011KT 10SM CLR 11/M01 A3003 RMK AO2 SLP167 T01061011 10133 20078 56005
Loading
Personal Weather Stations






























Interactive Weather Map
Tropical Storm Tracking
New forecast layout! Learn more

10-Day Weather Forecast

Advertisements
Track Severe Weather on mobile